createdAt,value
2022-12-03T00:00:53.146Z,100833.00
2022-12-03T00:03:22.247Z,100834.53
2022-12-03T00:05:49.441Z,100840.41
2022-12-03T00:08:21.000Z,100842.16
2022-12-03T00:10:47.783Z,100849.53
2022-12-03T00:13:14.452Z,100853.53
2022-12-03T00:15:45.672Z,100849.03
2022-12-03T00:18:12.674Z,100850.16
2022-12-03T00:20:41.633Z,100849.34
2022-12-03T00:23:13.011Z,100854.78
2022-12-03T00:25:42.073Z,100850.31
2022-12-03T00:28:08.683Z,100856.78
2022-12-03T00:30:35.381Z,100861.06
2022-12-03T00:33:04.301Z,100852.69
2022-12-03T00:35:31.003Z,100858.75
2022-12-03T00:38:04.804Z,100862.06
2022-12-03T00:40:35.027Z,100855.41
2022-12-03T00:43:04.216Z,100860.00
2022-12-03T00:45:33.270Z,100863.41
2022-12-03T00:48:02.315Z,100864.22
2022-12-03T00:50:31.358Z,100867.31
2022-12-03T00:53:01.388Z,100857.94
2022-12-03T00:55:28.107Z,100857.56
2022-12-03T00:57:57.025Z,100864.59
2022-12-03T01:00:25.434Z,100856.56
2022-12-03T01:02:55.105Z,100858.78
2022-12-03T01:05:27.107Z,100861.13
2022-12-03T01:07:53.851Z,100851.75
2022-12-03T01:10:23.095Z,100851.50
2022-12-03T01:12:52.023Z,100851.34
2022-12-03T01:15:18.850Z,100853.66
2022-12-03T01:17:45.574Z,100853.50
2022-12-03T01:20:14.548Z,100854.34
2022-12-03T01:22:41.229Z,100848.41
2022-12-03T01:25:08.217Z,100855.63
2022-12-03T01:27:35.006Z,100851.59
2022-12-03T01:30:01.647Z,100852.09
2022-12-03T01:32:31.266Z,100855.22
2022-12-03T01:34:57.977Z,100858.31
2022-12-03T01:37:28.538Z,100869.63
2022-12-03T01:39:55.175Z,100861.81
2022-12-03T01:42:24.689Z,100854.53
2022-12-03T01:44:57.508Z,100866.69
2022-12-03T01:47:35.800Z,100863.41
2022-12-03T01:50:05.010Z,100875.25
2022-12-03T01:52:39.305Z,100873.81
2022-12-03T01:55:18.258Z,100866.53
2022-12-03T01:57:51.417Z,100864.94
2022-12-03T02:00:23.513Z,100865.94
2022-12-03T02:02:53.506Z,100857.94
2022-12-03T02:05:28.059Z,100856.19
2022-12-03T02:08:00.477Z,100856.97
2022-12-03T02:10:36.940Z,100856.59
2022-12-03T02:13:07.574Z,100854.44
2022-12-03T02:15:39.330Z,100857.78
2022-12-03T02:18:11.094Z,100847.34
2022-12-03T02:20:51.752Z,100851.34
2022-12-03T02:23:42.508Z,100851.75
2022-12-03T02:26:11.811Z,100847.72
2022-12-03T02:28:38.691Z,100856.81
2022-12-03T02:31:05.473Z,100854.53
2022-12-03T02:33:34.832Z,100852.78
2022-12-03T02:36:03.884Z,100859.31
2022-12-03T02:38:35.684Z,100852.72
2022-12-03T02:41:09.461Z,100853.44
2022-12-03T02:43:38.465Z,100855.09
2022-12-03T02:46:08.006Z,100856.53
2022-12-03T02:48:40.229Z,100850.97
2022-12-03T02:51:11.016Z,100853.03
2022-12-03T02:53:46.886Z,100855.97
2022-12-03T02:56:20.801Z,100858.31
2022-12-03T02:59:00.255Z,100861.81
2022-12-03T03:01:29.393Z,100863.41
2022-12-03T03:03:59.083Z,100856.41
2022-12-03T03:06:30.439Z,100859.13
2022-12-03T03:08:59.733Z,100857.56
2022-12-03T03:11:27.134Z,100847.00
2022-12-03T03:13:54.057Z,100848.81
2022-12-03T03:16:21.015Z,100847.81
2022-12-03T03:18:48.194Z,100850.31
2022-12-03T03:21:14.765Z,100855.41
2022-12-03T03:23:41.310Z,100862.28
2022-12-03T03:26:11.376Z,100857.09
2022-12-03T03:28:42.723Z,100862.16
2022-12-03T03:31:16.076Z,100862.25
2022-12-03T03:33:45.675Z,100861.41
2022-12-03T03:36:16.129Z,100851.91
2022-12-03T03:38:42.844Z,100845.66
2022-12-03T03:41:11.408Z,100853.41
2022-12-03T03:43:40.026Z,100856.66
2022-12-03T03:46:09.665Z,100858.97
2022-12-03T03:48:36.533Z,100849.78
2022-12-03T03:51:09.577Z,100855.06
2022-12-03T03:53:47.804Z,100852.09
2022-12-03T03:56:32.544Z,100856.41
2022-12-03T03:58:59.383Z,100855.31
2022-12-03T04:01:26.871Z,100856.53
2022-12-03T04:03:57.201Z,100855.66
2022-12-03T04:06:23.919Z,100854.59
2022-12-03T04:08:50.516Z,100855.41
2022-12-03T04:11:35.583Z,100854.06
2022-12-03T04:14:02.665Z,100864.22
2022-12-03T04:16:29.347Z,100860.66
2022-12-03T04:19:03.187Z,100868.47
2022-12-03T04:21:48.275Z,100857.72
2022-12-03T04:24:14.858Z,100856.19
2022-12-03T04:27:00.028Z,100857.75
2022-12-03T04:29:26.680Z,100860.16
2022-12-03T04:32:14.762Z,100858.41
2022-12-03T04:34:59.676Z,100860.31
2022-12-03T04:37:30.673Z,100855.94
2022-12-03T04:39:59.633Z,100851.75
2022-12-03T04:42:28.386Z,100847.25
2022-12-03T04:44:58.432Z,100853.31
2022-12-03T04:47:29.847Z,100855.06
2022-12-03T04:49:59.068Z,100860.72
2022-12-03T04:52:25.584Z,100852.78
2022-12-03T04:54:54.792Z,100860.09
2022-12-03T04:57:24.111Z,100864.69
2022-12-03T04:59:52.880Z,100862.06
2022-12-03T05:02:21.795Z,100859.94
2022-12-03T05:04:48.353Z,100870.31
2022-12-03T05:07:14.987Z,100866.91
2022-12-03T05:09:41.613Z,100861.91
2022-12-03T05:12:08.258Z,100869.38
2022-12-03T05:14:34.877Z,100874.38
2022-12-03T05:17:01.563Z,100872.41
2022-12-03T05:19:48.128Z,100885.88
2022-12-03T05:22:14.645Z,100883.00
2022-12-03T05:24:43.365Z,100884.06
2022-12-03T05:27:12.323Z,100873.53
2022-12-03T05:29:43.686Z,100882.03
2022-12-03T05:32:15.246Z,100873.63
2022-12-03T05:34:41.779Z,100866.91
2022-12-03T05:37:11.099Z,100868.38
2022-12-03T05:39:37.681Z,100889.84
2022-12-03T05:42:23.596Z,100884.00
2022-12-03T05:44:52.543Z,100883.31
2022-12-03T05:47:21.555Z,100888.84
2022-12-03T05:49:50.539Z,100884.06
2022-12-03T05:52:17.060Z,100893.91
2022-12-03T05:54:43.591Z,100886.06
2022-12-03T05:57:10.442Z,100894.38
2022-12-03T05:59:39.378Z,100894.28
2022-12-03T06:02:06.054Z,100899.91
2022-12-03T06:04:32.662Z,100911.53
2022-12-03T06:07:02.233Z,100900.50
2022-12-03T06:09:28.761Z,100896.19
2022-12-03T06:11:55.663Z,100908.75
2022-12-03T06:14:24.764Z,100889.19
2022-12-03T06:16:51.258Z,100894.38
2022-12-03T06:19:17.967Z,100893.06
2022-12-03T06:21:46.855Z,100899.28
2022-12-03T06:24:13.458Z,100906.19
2022-12-03T06:26:40.078Z,100890.72
2022-12-03T06:29:11.376Z,100889.16
2022-12-03T06:31:40.414Z,100884.63
2022-12-03T06:34:07.139Z,100885.47
2022-12-03T06:36:36.031Z,100879.22
2022-12-03T06:39:02.551Z,100892.47
2022-12-03T06:41:31.437Z,100898.22
2022-12-03T06:43:58.068Z,100889.69
2022-12-03T06:46:27.191Z,100890.78
2022-12-03T06:48:53.782Z,100887.94
2022-12-03T06:51:22.543Z,100895.88
2022-12-03T06:53:51.428Z,100888.16
2022-12-03T06:56:22.064Z,100902.88
2022-12-03T06:58:49.109Z,100902.38
2022-12-03T07:01:18.148Z,100893.03
2022-12-03T07:03:47.195Z,100901.44
2022-12-03T07:06:14.166Z,100908.28
2022-12-03T07:08:43.312Z,100914.38
2022-12-03T07:11:28.534Z,100903.03
2022-12-03T07:13:56.937Z,100887.16
2022-12-03T07:16:29.464Z,100904.41
2022-12-03T07:18:56.054Z,100898.66
2022-12-03T07:21:22.663Z,100892.06
2022-12-03T07:23:51.544Z,100900.78
2022-12-03T07:26:18.115Z,100895.94
2022-12-03T07:28:44.771Z,100893.31
2022-12-03T07:31:11.362Z,100902.88
2022-12-03T07:33:37.960Z,100907.19
2022-12-03T07:36:04.556Z,100900.69
2022-12-03T07:38:31.623Z,100906.56
2022-12-03T07:40:58.219Z,100913.59
2022-12-03T07:43:27.457Z,100913.25
2022-12-03T07:45:54.054Z,100912.59
2022-12-03T07:48:20.795Z,100904.47
2022-12-03T07:50:49.676Z,100904.75
2022-12-03T07:53:16.305Z,100897.97
2022-12-03T07:55:45.360Z,100890.84
2022-12-03T07:58:12.064Z,100893.47
2022-12-03T08:00:38.773Z,100900.34
2022-12-03T08:03:07.936Z,100896.22
2022-12-03T08:05:34.470Z,100896.59
2022-12-03T08:08:01.372Z,100905.59
2022-12-03T08:10:28.500Z,100902.50
2022-12-03T08:12:59.174Z,100893.06
2022-12-03T08:15:32.239Z,100902.63
2022-12-03T08:18:12.303Z,100906.66
2022-12-03T08:20:40.747Z,100908.94
2022-12-03T08:23:13.604Z,100913.09
2022-12-03T08:25:40.135Z,100908.94
2022-12-03T08:32:29.769Z,100916.69
2022-12-03T08:35:02.221Z,100913.63
2022-12-03T08:43:55.254Z,100916.53
2022-12-03T08:50:42.404Z,100925.78
2022-12-03T08:53:27.068Z,100927.91
2022-12-03T08:55:59.159Z,100931.59
2022-12-03T08:58:39.501Z,100939.16
2022-12-03T09:01:24.578Z,100932.13
2022-12-03T09:04:14.320Z,100933.34
2022-12-03T09:06:55.908Z,100923.72
2022-12-03T09:09:34.945Z,100930.72
2022-12-03T09:12:03.842Z,100934.03
2022-12-03T09:14:32.685Z,100913.28
2022-12-03T09:17:01.806Z,100923.13
2022-12-03T09:19:31.158Z,100918.03
2022-12-03T09:21:57.962Z,100909.94
2022-12-03T09:24:24.592Z,100908.38
2022-12-03T09:26:55.707Z,100908.66
2022-12-03T09:29:24.334Z,100902.22
2022-12-03T09:31:55.828Z,100912.03
2022-12-03T09:34:24.634Z,100907.91
2022-12-03T09:36:57.197Z,100899.31
2022-12-03T09:39:23.677Z,100902.03
2022-12-03T09:46:23.889Z,100895.22
2022-12-03T09:48:50.657Z,100893.59
2022-12-03T09:51:17.950Z,100894.25
2022-12-03T09:53:44.934Z,100899.50
2022-12-03T09:56:19.326Z,100891.41
2022-12-03T09:58:45.978Z,100902.97
2022-12-03T10:01:15.131Z,100886.41
2022-12-03T10:03:50.642Z,100887.00
2022-12-03T10:06:19.780Z,100884.91
2022-12-03T10:08:54.466Z,100874.84
2022-12-03T10:11:24.349Z,100880.56
2022-12-03T10:13:54.040Z,100872.31
2022-12-03T10:16:21.386Z,100869.28
2022-12-03T10:18:59.260Z,100860.63
2022-12-03T10:21:45.709Z,100863.91
2022-12-03T10:24:41.402Z,100863.53
2022-12-03T10:27:24.248Z,100869.28
2022-12-03T10:29:59.268Z,100857.78
2022-12-03T10:32:42.434Z,100855.34
2022-12-03T10:35:15.735Z,100857.69
2022-12-03T10:38:02.606Z,100847.50
2022-12-03T10:40:36.502Z,100836.59
2022-12-03T10:43:19.613Z,100838.00
2022-12-03T10:45:49.488Z,100840.38
2022-12-03T10:48:25.457Z,100832.63
2022-12-03T10:51:07.090Z,100832.47
2022-12-03T11:00:23.018Z,100830.00
2022-12-03T11:02:56.382Z,100825.13
2022-12-03T11:05:28.561Z,100816.66
2022-12-03T11:07:55.721Z,100809.53
2022-12-03T11:10:22.383Z,100809.16
2022-12-03T11:13:26.202Z,100810.78
2022-12-03T11:15:55.977Z,100799.63
2022-12-03T11:18:34.673Z,100801.34
2022-12-03T11:21:14.533Z,100806.19
2022-12-03T11:23:47.123Z,100799.22
2022-12-03T11:26:19.288Z,100791.13
2022-12-03T11:28:46.334Z,100791.25
2022-12-03T11:31:31.334Z,100789.94
2022-12-03T11:34:19.576Z,100782.78
2022-12-03T11:37:11.351Z,100779.50
2022-12-03T11:39:49.851Z,100782.72
2022-12-03T11:42:32.218Z,100774.72
2022-12-03T11:45:05.271Z,100783.13
2022-12-03T11:47:45.593Z,100780.50
2022-12-03T11:50:18.127Z,100786.09
2022-12-03T11:52:49.164Z,100783.72
2022-12-03T11:55:25.311Z,100777.03
2022-12-03T11:57:58.951Z,100771.63
2022-12-03T12:00:28.467Z,100762.88
2022-12-03T12:02:58.777Z,100772.41
2022-12-03T12:05:34.081Z,100763.06
2022-12-03T12:08:05.732Z,100767.47
2022-12-03T12:10:41.946Z,100764.34
2022-12-03T12:13:28.100Z,100753.47
2022-12-03T12:16:00.684Z,100749.94
2022-12-03T12:18:36.745Z,100744.44
2022-12-03T12:21:41.399Z,100747.81
2022-12-03T12:24:30.065Z,100747.94
2022-12-03T12:26:58.899Z,100752.34
2022-12-03T12:29:25.538Z,100754.44
2022-12-03T12:31:58.146Z,100746.50
2022-12-03T12:34:27.415Z,100743.78
2022-12-03T12:36:59.804Z,100743.53
2022-12-03T12:39:28.857Z,100751.84
2022-12-03T12:41:58.011Z,100746.75
2022-12-03T12:44:27.411Z,100755.22
2022-12-03T12:47:01.605Z,100746.63
2022-12-03T12:49:32.175Z,100744.94
2022-12-03T12:51:58.761Z,100740.81
2022-12-03T12:54:30.201Z,100735.28
2022-12-03T12:56:56.873Z,100738.13
2022-12-03T12:59:26.165Z,100737.03
2022-12-03T13:01:52.915Z,100740.28
2022-12-03T13:04:27.767Z,100730.06
2022-12-03T13:06:54.803Z,100735.63
2022-12-03T13:09:25.056Z,100738.38
2022-12-03T13:11:59.138Z,100740.88
2022-12-03T13:14:30.454Z,100744.03
2022-12-03T13:17:00.441Z,100747.66
2022-12-03T13:19:46.642Z,100745.22
2022-12-03T13:22:20.763Z,100744.50
2022-12-03T13:24:50.965Z,100751.03
2022-12-03T13:27:17.499Z,100750.50
2022-12-03T13:30:00.940Z,100763.31
2022-12-03T13:32:33.281Z,100758.66
2022-12-03T13:35:19.169Z,100750.94
2022-12-03T13:37:48.041Z,100753.28
2022-12-03T13:40:26.509Z,100751.00
2022-12-03T13:42:57.910Z,100754.88
2022-12-03T13:45:42.138Z,100752.75
2022-12-03T13:48:33.972Z,100753.69
2022-12-03T13:51:11.807Z,100744.41
2022-12-03T13:53:43.345Z,100743.34
2022-12-03T13:56:29.696Z,100744.78
2022-12-03T13:59:01.216Z,100749.78
2022-12-03T14:01:31.118Z,100760.03
2022-12-03T14:03:57.820Z,100755.94
2022-12-03T14:06:25.371Z,100763.16
2022-12-03T14:08:56.858Z,100756.50
2022-12-03T14:11:42.139Z,100761.97
2022-12-03T14:14:11.399Z,100754.56
2022-12-03T14:16:40.412Z,100761.06
2022-12-03T14:19:09.391Z,100764.41
2022-12-03T14:21:38.315Z,100763.47
2022-12-03T14:24:07.736Z,100755.75
2022-12-03T14:26:39.260Z,100757.50
2022-12-03T14:29:09.040Z,100768.81
2022-12-03T14:31:40.675Z,100769.44
2022-12-03T14:34:12.162Z,100765.53
2022-12-03T14:36:41.103Z,100773.69
2022-12-03T14:39:07.850Z,100769.69
2022-12-03T14:41:52.864Z,100766.97
2022-12-03T14:44:24.255Z,100766.25
2022-12-03T14:46:56.606Z,100765.00
2022-12-03T14:49:23.879Z,100763.59
2022-12-03T14:51:52.895Z,100757.34
2022-12-03T14:54:19.522Z,100759.59
2022-12-03T14:56:46.177Z,100772.06
2022-12-03T14:59:15.309Z,100767.69
2022-12-03T15:01:44.001Z,100766.38
2022-12-03T15:04:13.346Z,100768.00
2022-12-03T15:06:39.951Z,100769.50
2022-12-03T15:09:06.794Z,100771.50
2022-12-03T15:11:33.415Z,100770.75
2022-12-03T15:14:02.377Z,100776.59
2022-12-03T15:16:29.088Z,100771.19
2022-12-03T15:18:55.858Z,100776.28
2022-12-03T15:21:24.986Z,100775.91
2022-12-03T15:23:53.858Z,100775.84
2022-12-03T15:26:25.317Z,100778.63
2022-12-03T15:29:02.992Z,100785.25
2022-12-03T15:31:31.044Z,100784.44
2022-12-03T15:33:57.691Z,100793.34
2022-12-03T15:36:29.236Z,100783.44
2022-12-03T15:38:56.835Z,100780.44
2022-12-03T15:41:31.264Z,100790.72
2022-12-03T15:44:02.685Z,100789.56
2022-12-03T15:46:31.464Z,100788.94
2022-12-03T15:48:58.344Z,100786.75
2022-12-03T15:51:27.314Z,100793.88
2022-12-03T15:53:56.345Z,100795.16
2022-12-03T15:56:28.314Z,100787.22
2022-12-03T15:58:55.093Z,100787.75
2022-12-03T16:01:23.976Z,100784.63
2022-12-03T16:03:55.348Z,100782.47
2022-12-03T16:06:24.582Z,100777.97
2022-12-03T16:08:53.753Z,100785.38
2022-12-03T16:11:22.647Z,100784.44
2022-12-03T16:13:49.230Z,100792.97
2022-12-03T16:16:20.624Z,100785.66
2022-12-03T16:18:49.571Z,100796.00
2022-12-03T16:21:26.419Z,100798.66
2022-12-03T16:23:59.336Z,100794.69
2022-12-03T16:26:35.283Z,100788.38
2022-12-03T16:36:43.066Z,100790.44
2022-12-03T16:39:14.516Z,100792.56
2022-12-03T16:41:46.578Z,100796.19
2022-12-03T16:44:57.645Z,100794.09
2022-12-03T16:47:28.046Z,100797.31
2022-12-03T16:54:43.921Z,100794.03
2022-12-03T16:57:10.577Z,100797.53
2022-12-03T16:59:37.257Z,100799.94
2022-12-03T17:02:04.148Z,100789.09
2022-12-03T17:04:30.955Z,100788.53
2022-12-03T17:06:57.508Z,100794.19
2022-12-03T17:09:24.590Z,100795.53
2022-12-03T17:11:51.269Z,100794.91
2022-12-03T17:14:18.111Z,100794.34
2022-12-03T17:16:49.401Z,100791.72
2022-12-03T17:19:23.305Z,100794.91
2022-12-03T17:21:49.973Z,100794.91
2022-12-03T17:24:16.789Z,100791.50
2022-12-03T17:26:44.803Z,100787.13
2022-12-03T17:29:11.365Z,100793.16
2022-12-03T17:31:41.938Z,100799.47
2022-12-03T17:34:09.633Z,100794.75
2022-12-03T17:36:36.305Z,100787.25
2022-12-03T17:39:06.335Z,100791.56
2022-12-03T17:41:32.951Z,100789.66
2022-12-03T17:43:59.519Z,100792.34
2022-12-03T17:46:28.485Z,100791.22
2022-12-03T17:48:57.637Z,100784.56
2022-12-03T17:51:29.467Z,100784.31
2022-12-03T17:53:56.150Z,100788.78
2022-12-03T17:56:22.885Z,100788.69
2022-12-03T17:58:49.437Z,100787.19
2022-12-03T18:01:23.939Z,100793.97
2022-12-03T18:03:58.051Z,100784.25
2022-12-03T18:06:26.427Z,100788.38
2022-12-03T18:08:53.064Z,100790.13
2022-12-03T18:11:22.533Z,100788.53
2022-12-03T18:13:51.758Z,100792.22
2022-12-03T18:16:18.443Z,100786.94
2022-12-03T18:18:48.090Z,100794.91
2022-12-03T18:21:19.334Z,100790.75
2022-12-03T18:23:48.268Z,100793.00
2022-12-03T18:26:17.298Z,100794.34
2022-12-03T18:28:46.347Z,100793.63
2022-12-03T18:31:19.238Z,100788.84
2022-12-03T18:33:46.046Z,100786.16
2022-12-03T18:36:21.027Z,100791.72
2022-12-03T18:38:55.570Z,100804.94
2022-12-03T18:41:28.418Z,100796.50
2022-12-03T18:43:55.565Z,100799.19
2022-12-03T18:46:51.916Z,100803.25
2022-12-03T18:49:13.832Z,100809.53
2022-12-03T18:51:40.529Z,100803.84
2022-12-03T18:54:12.596Z,100807.22
2022-12-03T18:56:42.468Z,100809.94
2022-12-03T18:59:12.535Z,100804.75
2022-12-03T19:01:39.478Z,100800.84
2022-12-03T19:04:06.124Z,100801.09
2022-12-03T19:06:32.733Z,100795.44
2022-12-03T19:09:01.957Z,100787.97
2022-12-03T19:11:30.804Z,100782.81
2022-12-03T19:13:59.174Z,100789.31
2022-12-03T19:16:31.826Z,100788.19
2022-12-03T19:19:00.875Z,100790.56
2022-12-03T19:21:32.256Z,100800.22
2022-12-03T19:24:25.505Z,100800.91
2022-12-03T19:26:47.646Z,100800.91
2022-12-03T19:29:14.255Z,100804.97
2022-12-03T19:31:43.315Z,100800.91
2022-12-03T19:34:10.074Z,100807.91
2022-12-03T19:36:41.347Z,100807.09
2022-12-03T19:39:10.298Z,100808.25
2022-12-03T19:41:37.073Z,100816.19
2022-12-03T19:44:10.749Z,100815.25
2022-12-03T19:46:37.594Z,100815.66
2022-12-03T19:49:04.982Z,100820.56
2022-12-03T19:51:35.111Z,100813.41
2022-12-03T19:54:09.832Z,100812.69
2022-12-03T19:56:41.615Z,100813.41
2022-12-03T19:59:10.550Z,100813.19
2022-12-03T20:01:43.681Z,100814.25
2022-12-03T20:04:14.197Z,100811.09
2022-12-03T20:06:43.046Z,100817.31
2022-12-03T20:09:24.317Z,100814.44
2022-12-03T20:11:51.755Z,100826.03
2022-12-03T20:14:20.876Z,100826.38
2022-12-03T20:16:52.919Z,100823.75
2022-12-03T20:19:19.638Z,100823.84
2022-12-03T20:21:51.132Z,100821.19
2022-12-03T20:24:20.238Z,100824.03
2022-12-03T20:26:49.101Z,100823.69
2022-12-03T20:29:18.271Z,100815.75
2022-12-03T20:31:45.090Z,100811.31
2022-12-03T20:34:12.011Z,100807.31
2022-12-03T20:36:39.562Z,100816.09
2022-12-03T20:39:10.299Z,100812.41
2022-12-03T20:41:37.697Z,100812.09
2022-12-03T20:44:09.862Z,100814.72
2022-12-03T20:46:38.916Z,100814.72
2022-12-03T20:49:10.476Z,100804.59
2022-12-03T20:51:39.720Z,100811.03
2022-12-03T20:54:06.290Z,100804.94
2022-12-03T20:56:39.610Z,100812.00
2022-12-03T20:59:10.886Z,100813.66
2022-12-03T21:01:38.725Z,100809.69
2022-12-03T21:04:09.297Z,100806.81
2022-12-03T21:06:37.520Z,100803.81
2022-12-03T21:09:06.927Z,100803.00
2022-12-03T21:11:35.955Z,100797.91
2022-12-03T21:14:02.822Z,100790.94
2022-12-03T21:17:07.971Z,100798.47
2022-12-03T21:19:28.845Z,100794.03
2022-12-03T21:21:57.845Z,100796.81
2022-12-03T21:24:24.629Z,100792.66
2022-12-03T21:26:51.192Z,100794.53
2022-12-03T21:29:20.170Z,100806.34
2022-12-03T21:31:49.165Z,100808.56
2022-12-03T21:34:20.909Z,100805.69
2022-12-03T21:36:50.085Z,100806.81
2022-12-03T21:39:16.710Z,100800.38
2022-12-03T21:42:19.162Z,100788.66
2022-12-03T21:44:30.021Z,100793.69
2022-12-03T21:47:11.391Z,100782.59
2022-12-03T21:49:42.896Z,100787.41
2022-12-03T21:52:10.137Z,100786.59
2022-12-03T21:54:39.156Z,100790.19
2022-12-03T21:57:06.084Z,100786.34
2022-12-03T21:59:35.119Z,100786.13
2022-12-03T22:02:11.651Z,100786.25
2022-12-03T22:04:41.158Z,100785.63
2022-12-03T22:07:14.976Z,100786.44
2022-12-03T22:09:41.563Z,100788.91
2022-12-03T22:12:08.406Z,100788.97
2022-12-03T22:14:35.116Z,100792.66
2022-12-03T22:17:01.777Z,100788.50
2022-12-03T22:19:31.278Z,100788.19
2022-12-03T22:21:58.074Z,100790.56
2022-12-03T22:24:27.203Z,100785.00
2022-12-03T22:26:54.982Z,100783.16
2022-12-03T22:29:21.799Z,100785.47
2022-12-03T22:31:48.558Z,100774.16
2022-12-03T22:34:15.307Z,100776.41
2022-12-03T22:36:41.967Z,100788.03
2022-12-03T22:39:11.034Z,100777.34
2022-12-03T22:41:40.526Z,100775.94
2022-12-03T22:44:11.917Z,100779.03
2022-12-03T22:46:38.719Z,100770.84
2022-12-03T22:49:07.555Z,100769.59
2022-12-03T22:51:39.691Z,100777.53
2022-12-03T22:54:06.773Z,100779.28
2022-12-03T22:56:35.793Z,100780.88
2022-12-03T22:59:02.943Z,100778.97
2022-12-03T23:01:36.224Z,100778.28
2022-12-03T23:04:06.146Z,100778.78
2022-12-03T23:06:39.096Z,100773.69
2022-12-03T23:09:09.439Z,100770.53
2022-12-03T23:11:36.338Z,100768.31
2022-12-03T23:14:07.846Z,100764.50
2022-12-03T23:16:34.633Z,100764.56
2022-12-03T23:19:07.111Z,100770.94
2022-12-03T23:21:37.993Z,100765.09
2022-12-03T23:24:08.326Z,100773.84
2022-12-03T23:26:38.716Z,100767.47
2022-12-03T23:29:08.696Z,100761.47
2022-12-03T23:31:35.584Z,100761.94
2022-12-03T23:34:05.242Z,100766.72
2022-12-03T23:36:35.407Z,100758.59
2022-12-03T23:39:02.183Z,100760.56
2022-12-03T23:41:34.066Z,100756.69
2022-12-03T23:44:00.661Z,100749.84
2022-12-03T23:46:29.842Z,100748.25
2022-12-03T23:48:58.991Z,100749.84
2022-12-03T23:51:28.872Z,100748.25
2022-12-03T23:53:56.362Z,100748.56
2022-12-03T23:56:27.238Z,100753.03
2022-12-03T23:58:53.824Z,100747.94
